Time;durP1;ratioP1;P1;durP2;ratioP2;P2;SDS_P1;SDS_P2;PMS_P1;PMS_P2;Temp;Humidity;BMP_temperature;BMP_pressure;BME280_temperature;BME280_humidity;BME280_pressure;Samples;Min_cycle;Max_cycle;Signal;HPM_P1;HPM_P2
2023/12/21 00:00:51;;;;;;;6.80;2.80;;;;;;;1.85;83.19;99467.00;104987;1257;72055;-64
2023/12/21 00:03:38;;;;;;;7.00;2.90;;;;;;;1.83;83.36;99455.83;104742;1258;138756;-64
2023/12/21 00:06:05;;;;;;;6.10;2.90;;;;;;;1.80;83.64;99454.88;104712;1256;61634;-63
2023/12/21 00:08:32;;;;;;;5.40;2.70;;;;;;;1.79;83.76;99450.31;104730;1261;74620;-64
2023/12/21 00:10:58;;;;;;;6.70;2.80;;;;;;;1.78;83.87;99439.92;104769;1256;138411;-64
2023/12/21 00:13:26;;;;;;;7.40;3.10;;;;;;;1.79;84.05;99443.76;104815;1260;72868;-64
2023/12/21 00:15:53;;;;;;;8.80;2.60;;;;;;;1.81;84.19;99447.98;104707;1261;138486;-67
2023/12/21 00:18:20;;;;;;;5.30;2.80;;;;;;;1.87;84.48;99454.09;109001;1256;59464;-67
2023/12/21 00:20:46;;;;;;;5.80;3.10;;;;;;;1.99;84.72;99459.77;109016;1255;72581;-65
2023/12/21 00:23:13;;;;;;;8.80;4.50;;;;;;;2.13;84.82;99462.38;108953;1254;138210;-65
2023/12/21 00:25:40;;;;;;;12.80;6.80;;;;;;;2.28;85.00;99465.49;109055;1256;72691;-63
2023/12/21 00:28:06;;;;;;;10.00;6.30;;;;;;;2.42;85.02;99461.52;105422;1257;138287;-63
2023/12/21 00:30:33;;;;;;;24.40;10.80;;;;;;;2.54;84.91;99453.16;104929;1261;61379;-67
2023/12/21 00:33:00;;;;;;;12.40;7.30;;;;;;;2.65;84.80;99449.03;104909;1257;74686;-67
2023/12/21 00:35:26;;;;;;;16.70;8.00;;;;;;;2.74;84.63;99444.15;104682;1257;138152;-66
2023/12/21 00:37:53;;;;;;;17.90;9.40;;;;;;;2.79;84.55;99441.39;104760;1258;73758;-63
2023/12/21 00:40:20;;;;;;;17.70;7.90;;;;;;;2.83;84.48;99436.83;104687;1258;138720;-62
2023/12/21 00:42:46;;;;;;;12.00;6.20;;;;;;;2.88;84.52;99436.35;104975;1260;61237;-64
2023/12/21 00:45:13;;;;;;;10.30;6.20;;;;;;;2.95;84.67;99436.73;104819;1257;138827;-64
2023/12/21 00:47:40;;;;;;;11.20;5.20;;;;;;;3.01;84.45;99435.20;108902;1255;65457;-62
2023/12/21 00:50:07;;;;;;;8.90;4.20;;;;;;;3.06;84.55;99434.51;109017;1255;71189;-65
2023/12/21 00:52:34;;;;;;;9.90;4.60;;;;;;;3.07;84.39;99429.00;108956;1256;138125;-65
2023/12/21 00:55:00;;;;;;;7.40;4.20;;;;;;;3.03;84.05;99425.71;109060;1255;59109;-63
2023/12/21 00:57:27;;;;;;;8.70;5.30;;;;;;;2.91;83.64;99423.45;108105;1255;138649;-62
2023/12/21 00:59:54;;;;;;;33.60;18.00;;;;;;;2.78;83.37;99422.80;104772;1259;65255;-63
2023/12/21 01:02:20;;;;;;;36.00;17.80;;;;;;;2.62;83.29;99418.09;104817;1258;72093;-62
2023/12/21 01:04:47;;;;;;;28.70;13.10;;;;;;;2.49;83.28;99413.66;104835;1261;138901;-67
2023/12/21 01:07:14;;;;;;;28.50;12.80;;;;;;;2.38;83.35;99415.33;104889;1257;61582;-62
2023/12/21 01:09:40;;;;;;;27.80;13.40;;;;;;;2.27;83.38;99416.35;104696;1256;138804;-63
2023/12/21 01:12:07;;;;;;;88.00;28.40;;;;;;;2.19;83.48;99412.89;105026;1258;66645;-64
2023/12/21 01:14:34;;;;;;;74.60;25.50;;;;;;;2.10;83.72;99417.09;104753;1260;71824;-63
2023/12/21 01:17:00;;;;;;;43.60;22.50;;;;;;;2.04;83.78;99421.55;104851;1256;138692;-63
2023/12/21 01:19:27;;;;;;;59.20;33.00;;;;;;;1.99;84.00;99424.79;104826;1257;61352;-64
2023/12/21 01:21:54;;;;;;;28.50;18.30;;;;;;;1.93;84.15;99421.82;104723;1259;138904;-63
2023/12/21 01:24:21;;;;;;;17.30;9.90;;;;;;;1.92;84.30;99419.52;104835;1261;68605;-64
2023/12/21 01:26:47;;;;;;;18.60;10.20;;;;;;;2.00;84.78;99421.71;104849;1258;73171;-62
2023/12/21 01:29:14;;;;;;;18.90;7.00;;;;;;;2.13;85.29;99417.36;104782;1259;138532;-62
2023/12/21 01:31:41;;;;;;;15.60;6.90;;;;;;;2.28;85.41;99407.85;104948;1256;63187;-63
2023/12/21 01:34:07;;;;;;;13.20;6.10;;;;;;;2.39;85.48;99396.14;104650;1260;138548;-66
2023/12/21 01:36:34;;;;;;;27.70;18.70;;;;;;;2.45;85.25;99392.73;105020;1256;65753;-66
2023/12/21 01:39:01;;;;;;;18.60;14.60;;;;;;;2.48;85.09;99389.55;104744;1260;72650;-66
2023/12/21 01:41:28;;;;;;;22.00;8.20;;;;;;;2.53;85.14;99378.99;104701;1258;138068;-63
2023/12/21 01:43:56;;;;;;;13.60;6.80;;;;;;;2.56;85.14;99372.67;104977;1257;61279;-62
2023/12/21 01:46:23;;;;;;;13.30;6.60;;;;;;;2.57;85.02;99366.64;104921;1256;138539;-64
2023/12/21 01:48:50;;;;;;;13.10;6.60;;;;;;;2.57;85.04;99364.91;105921;1257;67383;-68
2023/12/21 01:51:18;;;;;;;12.10;6.50;;;;;;;2.55;84.89;99362.08;104690;1260;138466;-64
2023/12/21 01:53:44;;;;;;;14.00;6.80;;;;;;;2.53;84.90;99351.12;104985;1257;61322;-64
2023/12/21 01:56:11;;;;;;;13.60;6.90;;;;;;;2.50;84.83;99347.20;104859;1257;61246;-65
2023/12/21 01:58:37;;;;;;;17.00;8.40;;;;;;;2.47;84.73;99344.31;104891;1260;138257;-64
2023/12/21 02:01:04;;;;;;;11.50;6.40;;;;;;;2.48;85.09;99340.57;104662;1257;66513;-67
2023/12/21 02:03:31;;;;;;;11.30;6.80;;;;;;;2.52;85.11;99331.50;104699;1257;138299;-66
2023/12/21 02:05:57;;;;;;;12.50;5.50;;;;;;;2.55;85.34;99325.20;104705;1256;61391;-67
2023/12/21 02:08:24;;;;;;;10.20;5.00;;;;;;;2.58;85.30;99321.83;104789;1254;61261;-66
2023/12/21 02:10:56;;;;;;;9.20;4.80;;;;;;;2.62;85.36;99319.55;104581;1259;138570;-63
2023/12/21 02:13:23;;;;;;;11.60;5.60;;;;;;;2.66;85.27;99309.46;104978;1260;66989;-63
2023/12/21 02:15:50;;;;;;;11.60;5.80;;;;;;;2.71;85.36;99304.60;104762;1260;138768;-63
2023/12/21 02:18:17;;;;;;;9.50;5.10;;;;;;;2.74;85.38;99304.54;109051;1256;59905;-63
2023/12/21 02:20:44;;;;;;;14.20;5.90;;;;;;;2.77;85.35;99302.19;108943;1256;59037;-63
2023/12/21 02:23:10;;;;;;;16.30;5.50;;;;;;;2.80;85.27;99304.02;108919;1255;138270;-64
2023/12/21 02:25:37;;;;;;;13.50;4.40;;;;;;;2.84;85.23;99304.34;109016;1256;64287;-64
2023/12/21 02:28:04;;;;;;;14.00;5.00;;;;;;;2.83;85.09;99306.90;108808;1256;138340;-66
2023/12/21 02:30:31;;;;;;;11.40;4.60;;;;;;;2.78;84.92;99299.64;108960;1256;59894;-66
2023/12/21 02:32:57;;;;;;;11.00;4.70;;;;;;;2.77;85.05;99303.58;108427;1257;59880;-67
2023/12/21 02:35:24;;;;;;;13.80;4.50;;;;;;;2.83;85.19;99295.99;104842;1260;138062;-67
2023/12/21 02:37:50;;;;;;;8.90;4.50;;;;;;;2.92;85.43;99290.20;105030;1260;65366;-67
2023/12/21 02:40:17;;;;;;;9.50;4.70;;;;;;;2.99;85.35;99281.94;104744;1258;138138;-67
2023/12/21 02:42:44;;;;;;;15.80;4.90;;;;;;;3.04;85.52;99274.65;104885;1256;61357;-67
2023/12/21 02:45:10;;;;;;;12.90;5.10;;;;;;;3.05;85.34;99264.64;104971;1256;61713;-66
2023/12/21 02:47:37;;;;;;;11.40;4.50;;;;;;;3.12;85.31;99270.73;104924;1256;76194;-66
2023/12/21 02:50:04;;;;;;;13.60;5.50;;;;;;;3.15;85.37;99270.16;105056;1257;65725;-67
2023/12/21 02:52:31;;;;;;;9.60;4.80;;;;;;;3.14;85.06;99269.76;104740;1260;138271;-65
2023/12/21 02:54:58;;;;;;;15.90;5.80;;;;;;;3.09;84.90;99260.27;104792;1256;61356;-63
2023/12/21 02:57:24;;;;;;;11.50;5.30;;;;;;;3.02;84.98;99252.59;104768;1258;138437;-63
2023/12/21 02:59:51;;;;;;;13.40;6.10;;;;;;;2.96;84.86;99250.31;104816;1256;75070;-63
2023/12/21 03:02:18;;;;;;;12.70;5.90;;;;;;;2.88;84.73;99244.89;105066;1260;66696;-66
2023/12/21 03:04:44;;;;;;;11.00;5.90;;;;;;;2.81;84.82;99235.29;104692;1256;138348;-66
2023/12/21 03:07:11;;;;;;;15.10;6.20;;;;;;;2.74;84.86;99232.81;104850;1256;61272;-66
2023/12/21 03:09:38;;;;;;;11.50;5.30;;;;;;;2.65;84.72;99224.73;104846;1256;139077;-66
2023/12/21 03:12:05;;;;;;;16.50;6.30;;;;;;;2.58;84.89;99220.89;104950;1257;75255;-65
2023/12/21 03:14:32;;;;;;;15.00;6.10;;;;;;;2.53;84.95;99216.90;105047;1257;67649;-66
2023/12/21 03:16:59;;;;;;;12.20;5.90;;;;;;;2.48;85.01;99209.33;104785;1258;138623;-65
2023/12/21 03:19:25;;;;;;;14.80;5.60;;;;;;;2.47;85.03;99212.73;104694;1260;61348;-65
2023/12/21 03:21:52;;;;;;;16.50;7.00;;;;;;;2.43;85.24;99205.52;104696;1260;138411;-63
2023/12/21 03:24:18;;;;;;;12.50;5.30;;;;;;;2.41;85.38;99202.68;104774;1256;75860;-63
2023/12/21 03:26:46;;;;;;;13.90;6.00;;;;;;;2.39;85.41;99203.98;104859;1258;64921;-63
2023/12/21 03:29:14;;;;;;;11.40;5.50;;;;;;;2.36;85.48;99199.21;108887;1255;138815;-65
2023/12/21 03:31:40;;;;;;;11.60;5.30;;;;;;;2.35;85.40;99195.20;108936;1257;58990;-65
2023/12/21 03:34:09;;;;;;;12.30;5.20;;;;;;;2.32;85.50;99186.80;108916;1255;138180;-63
2023/12/21 03:36:35;;;;;;;15.90;5.50;;;;;;;2.32;85.53;99184.55;108891;1256;75269;-65
2023/12/21 03:39:02;;;;;;;15.30;5.60;;;;;;;2.32;85.60;99178.30;109058;1255;66472;-64
2023/12/21 03:41:29;;;;;;;11.90;5.50;;;;;;;2.31;85.62;99167.75;107724;1257;138004;-67
2023/12/21 03:43:57;;;;;;;16.70;5.60;;;;;;;2.30;85.57;99159.75;104871;1256;61248;-64
2023/12/21 03:46:24;;;;;;;18.50;6.30;;;;;;;2.28;85.69;99154.13;108949;1257;137883;-63
2023/12/21 03:48:51;;;;;;;15.00;6.00;;;;;;;2.26;85.64;99151.13;109040;1255;74370;-64
2023/12/21 03:51:18;;;;;;;15.30;5.80;;;;;;;2.23;85.67;99145.81;108838;1256;138806;-66
2023/12/21 03:53:44;;;;;;;15.60;5.70;;;;;;;2.21;85.77;99145.59;108976;1254;71384;-67
2023/12/21 03:56:11;;;;;;;14.10;5.30;;;;;;;2.20;85.87;99139.16;109115;1255;59307;-64
2023/12/21 03:58:38;;;;;;;16.40;5.80;;;;;;;2.22;86.16;99142.14;108969;1255;140456;-62
2023/12/21 04:01:04;;;;;;;10.80;5.40;;;;;;;2.25;86.24;99138.45;109022;1255;73799;-63
2023/12/21 04:03:31;;;;;;;16.20;6.40;;;;;;;2.28;86.03;99131.12;108885;1255;138089;-62
2023/12/21 04:05:58;;;;;;;13.70;5.70;;;;;;;2.33;86.45;99130.22;108027;1254;73615;-62
2023/12/21 04:08:24;;;;;;;12.50;6.10;;;;;;;2.39;86.37;99128.17;104936;1256;61271;-64
2023/12/21 04:10:51;;;;;;;16.90;5.40;;;;;;;2.48;86.56;99132.76;104810;1259;138154;-67
2023/12/21 04:13:18;;;;;;;14.60;5.50;;;;;;;2.56;86.86;99139.61;104836;1256;74087;-63
2023/12/21 04:15:46;;;;;;;13.00;6.00;;;;;;;2.65;86.82;99138.14;104820;1258;138536;-67
2023/12/21 04:18:13;;;;;;;16.50;5.90;;;;;;;2.73;87.07;99134.06;104811;1260;73305;-66
2023/12/21 04:20:40;;;;;;;12.80;5.70;;;;;;;2.81;86.95;99129.45;104737;1258;61385;-66
2023/12/21 04:23:07;;;;;;;16.40;6.00;;;;;;;2.88;86.94;99121.33;104950;1259;138067;-67
2023/12/21 04:25:33;;;;;;;13.00;5.10;;;;;;;2.95;86.97;99113.55;104982;1257;74035;-67
2023/12/21 04:28:02;;;;;;;13.40;5.70;;;;;;;3.01;87.02;99108.37;104842;1260;138059;-66
2023/12/21 04:30:28;;;;;;;8.50;4.60;;;;;;;3.07;86.97;99102.48;104926;1256;73636;-66
2023/12/21 04:32:55;;;;;;;11.40;4.60;;;;;;;3.12;87.07;99102.98;104969;1257;60318;-66
2023/12/21 04:35:21;;;;;;;8.70;4.40;;;;;;;3.17;87.01;99098.60;104868;1261;138153;-67
2023/12/21 04:37:48;;;;;;;7.70;4.20;;;;;;;3.22;86.95;99095.79;104834;1256;72490;-67
2023/12/21 04:40:15;;;;;;;7.90;4.10;;;;;;;3.25;86.88;99088.94;104774;1256;138200;-65
2023/12/21 04:42:44;;;;;;;10.10;4.30;;;;;;;3.28;86.86;99077.95;104817;1256;73755;-66
2023/12/21 04:45:11;;;;;;;8.70;3.70;;;;;;;3.33;86.85;99072.53;108997;1255;59110;-66
2023/12/21 04:47:39;;;;;;;7.50;3.50;;;;;;;3.38;86.74;99070.20;105573;1259;62426;-66
2023/12/21 04:50:07;;;;;;;5.00;3.10;;;;;;;3.40;86.82;99066.81;109018;1256;74367;-66
2023/12/21 04:52:33;;;;;;;8.30;3.70;;;;;;;3.42;86.68;99069.29;108982;1255;137980;-66
2023/12/21 04:55:00;;;;;;;6.70;3.20;;;;;;;3.45;86.59;99071.11;109023;1255;73581;-65
2023/12/21 04:57:26;;;;;;;6.60;3.00;;;;;;;3.48;86.59;99069.95;108950;1255;138625;-65
2023/12/21 04:59:53;;;;;;;6.40;3.20;;;;;;;3.52;86.55;99069.90;108943;1257;59063;-66
2023/12/21 05:02:20;;;;;;;4.50;2.90;;;;;;;3.56;86.46;99065.66;109016;1255;74362;-66
2023/12/21 05:04:46;;;;;;;6.10;3.50;;;;;;;3.59;86.45;99062.96;108911;1256;137809;-65
2023/12/21 05:07:13;;;;;;;6.00;3.30;;;;;;;3.64;86.51;99068.47;107779;1255;71082;-65
2023/12/21 05:09:39;;;;;;;6.10;3.30;;;;;;;3.68;86.51;99063.03;104843;1256;138625;-66
2023/12/21 05:12:06;;;;;;;6.60;3.40;;;;;;;3.72;86.38;99054.79;104866;1254;61263;-65
2023/12/21 05:14:33;;;;;;;8.10;3.10;;;;;;;3.74;86.25;99051.88;104941;1256;72891;-66
2023/12/21 05:17:00;;;;;;;5.50;3.20;;;;;;;3.74;86.24;99048.08;104714;1259;138471;-67
2023/12/21 05:19:27;;;;;;;4.30;2.80;;;;;;;3.76;86.35;99038.23;104772;1256;73242;-65
2023/12/21 05:21:53;;;;;;;4.30;2.80;;;;;;;3.77;86.18;99032.70;104790;1256;138146;-65
2023/12/21 05:24:20;;;;;;;3.90;2.40;;;;;;;3.79;86.24;99027.04;104994;1261;61347;-67
2023/12/21 05:26:47;;;;;;;6.60;2.80;;;;;;;3.81;86.26;99025.52;104914;1261;74820;-66
2023/12/21 05:29:13;;;;;;;3.50;2.60;;;;;;;3.80;86.21;99015.25;104771;1256;138883;-66
2023/12/21 05:31:41;;;;;;;7.10;3.20;;;;;;;3.79;86.10;99011.92;104972;1259;73965;-66
2023/12/21 05:34:08;;;;;;;4.50;2.90;;;;;;;3.79;86.19;99000.84;104844;1256;138431;-65
2023/12/21 05:36:35;;;;;;;4.70;2.90;;;;;;;3.82;86.27;98991.70;104758;1256;61239;-64
2023/12/21 05:39:03;;;;;;;6.10;2.50;;;;;;;3.85;86.28;98985.36;104854;1256;74767;-66
2023/12/21 05:41:30;;;;;;;4.40;2.70;;;;;;;3.87;86.20;98984.89;104970;1258;137933;-66
2023/12/21 05:43:57;;;;;;;5.00;2.60;;;;;;;3.90;86.13;98982.70;105733;1257;71809;-67
2023/12/21 05:46:24;;;;;;;4.40;2.70;;;;;;;3.92;86.27;98983.44;104762;1258;139042;-65
2023/12/21 05:48:50;;;;;;;9.10;2.40;;;;;;;3.93;86.30;98977.56;104833;1256;61303;-67
2023/12/21 05:51:17;;;;;;;4.60;2.60;;;;;;;3.95;86.07;98975.01;104713;1256;138311;-65
2023/12/21 05:53:44;;;;;;;3.20;2.10;;;;;;;3.98;86.19;98964.15;104916;1259;67202;-64
2023/12/21 05:56:11;;;;;;;6.90;2.60;;;;;;;4.00;86.05;98956.02;104781;1261;71826;-64
2023/12/21 05:58:38;;;;;;;4.70;2.50;;;;;;;3.99;85.94;98952.36;104685;1256;138491;-64
2023/12/21 06:01:04;;;;;;;4.10;2.30;;;;;;;3.99;85.91;98946.46;104940;1258;61267;-66
2023/12/21 06:03:31;;;;;;;3.90;2.30;;;;;;;4.03;86.00;98942.55;104900;1256;139129;-67
2023/12/21 06:05:59;;;;;;;3.60;2.40;;;;;;;4.04;86.03;98938.42;105014;1254;66937;-66
2023/12/21 06:08:26;;;;;;;5.30;2.60;;;;;;;4.06;85.94;98932.04;108988;1256;72912;-66
2023/12/21 06:10:53;;;;;;;4.40;2.30;;;;;;;4.08;86.01;98930.87;108918;1256;138405;-66
2023/12/21 06:13:19;;;;;;;4.10;2.60;;;;;;;4.13;85.95;98925.92;105995;1257;61236;-67
2023/12/21 06:15:46;;;;;;;4.00;2.70;;;;;;;4.17;85.95;98916.82;104693;1259;138440;-66
2023/12/21 06:18:12;;;;;;;3.50;2.10;;;;;;;4.20;85.84;98916.87;104872;1260;65940;-64
2023/12/21 06:20:39;;;;;;;3.60;2.20;;;;;;;4.22;85.82;98908.94;104828;1260;73972;-65
2023/12/21 06:23:06;;;;;;;3.80;2.10;;;;;;;4.23;85.77;98906.17;104645;1260;138124;-65
2023/12/21 06:25:32;;;;;;;6.80;2.60;;;;;;;4.25;85.68;98903.61;104778;1260;61314;-63
2023/12/21 06:27:59;;;;;;;4.40;2.40;;;;;;;4.26;85.84;98898.24;104797;1256;138649;-65
2023/12/21 06:30:26;;;;;;;6.10;2.90;;;;;;;4.28;85.76;98896.20;104985;1258;65345;-64
2023/12/21 06:32:53;;;;;;;6.50;3.50;;;;;;;4.27;85.62;98890.28;104978;1260;71499;-64
2023/12/21 06:35:20;;;;;;;11.30;4.80;;;;;;;4.27;85.58;98889.07;108950;1256;139738;-65
2023/12/21 06:37:46;;;;;;;7.90;4.40;;;;;;;4.27;85.56;98885.61;109030;1256;60677;-64
2023/12/21 06:40:14;;;;;;;107.20;52.90;;;;;;;4.28;85.58;98877.12;108910;1256;138242;-64
2023/12/21 06:42:40;;;;;;;43.70;23.10;;;;;;;4.32;85.59;98874.75;109010;1256;64982;-64
2023/12/21 06:45:07;;;;;;;44.40;24.80;;;;;;;4.33;85.49;98861.92;108980;1256;72228;-64
2023/12/21 06:47:34;;;;;;;34.90;18.50;;;;;;;4.32;85.34;98855.66;108948;1256;138541;-65
2023/12/21 06:50:00;;;;;;;25.30;16.00;;;;;;;4.31;85.23;98851.99;109046;1256;59737;-64
2023/12/21 06:52:27;;;;;;;14.90;8.60;;;;;;;4.28;85.22;98846.73;108932;1256;138847;-65
2023/12/21 06:54:54;;;;;;;24.80;14.50;;;;;;;4.28;85.06;98839.26;109038;1256;67289;-65
2023/12/21 06:57:21;;;;;;;21.50;12.90;;;;;;;4.27;85.11;98830.91;108896;1256;139277;-65
2023/12/21 06:59:49;;;;;;;16.10;9.20;;;;;;;4.27;85.00;98823.77;108923;1256;59119;-65
2023/12/21 07:02:15;;;;;;;26.30;14.60;;;;;;;4.26;84.89;98821.34;109005;1256;59334;-65
2023/12/21 07:04:42;;;;;;;20.20;10.20;;;;;;;4.27;84.94;98819.97;104782;1260;138165;-65
2023/12/21 07:07:09;;;;;;;18.40;10.80;;;;;;;4.25;84.83;98812.63;104746;1257;61447;-66
2023/12/21 07:09:36;;;;;;;13.20;7.00;;;;;;;4.23;84.93;98809.30;104841;1255;139388;-65
2023/12/21 07:12:05;;;;;;;15.40;7.70;;;;;;;4.21;84.91;98805.44;104855;1260;61346;-65
2023/12/21 07:14:32;;;;;;;16.60;8.80;;;;;;;4.22;84.94;98808.06;109054;1255;60315;-66
2023/12/21 07:16:59;;;;;;;24.00;12.90;;;;;;;4.25;85.17;98799.09;108904;1259;138624;-66
2023/12/21 07:19:25;;;;;;;9.70;4.90;;;;;;;4.27;84.94;98796.35;109034;1256;65491;-65
2023/12/21 07:21:52;;;;;;;16.00;8.60;;;;;;;4.26;84.95;98793.55;108917;1256;138018;-65
2023/12/21 07:24:19;;;;;;;10.00;5.90;;;;;;;4.30;85.02;98793.47;109032;1256;58989;-66
2023/12/21 07:26:45;;;;;;;17.30;9.60;;;;;;;4.33;84.98;98784.14;109057;1256;59111;-68
2023/12/21 07:29:12;;;;;;;15.40;8.30;;;;;;;4.34;84.85;98770.61;108953;1254;138169;-67
2023/12/21 07:31:40;;;;;;;12.80;7.20;;;;;;;4.37;84.95;98771.52;109058;1255;64960;-68
2023/12/21 07:34:07;;;;;;;8.40;4.60;;;;;;;4.39;84.92;98771.57;108958;1254;138953;-66
2023/12/21 07:36:34;;;;;;;8.50;5.20;;;;;;;4.43;84.79;98758.79;105246;1256;61245;-67
2023/12/21 07:39:01;;;;;;;8.20;5.10;;;;;;;4.47;84.69;98753.81;104959;1256;61101;-67
2023/12/21 07:41:27;;;;;;;7.20;5.00;;;;;;;4.48;84.74;98745.84;104765;1256;138531;-64
2023/12/21 07:43:54;;;;;;;8.50;5.70;;;;;;;4.52;84.75;98739.50;105008;1256;68431;-66
2023/12/21 07:46:21;;;;;;;7.10;4.70;;;;;;;4.53;84.56;98728.73;104795;1260;138986;-69
2023/12/21 07:48:48;;;;;;;8.90;5.40;;;;;;;4.54;84.50;98716.75;104876;1260;61226;-68
2023/12/21 07:51:14;;;;;;;5.90;4.10;;;;;;;4.55;84.60;98709.48;104896;1261;138750;-64
2023/12/21 07:53:41;;;;;;;12.30;6.50;;;;;;;4.55;84.47;98711.73;104975;1256;75395;-65
2023/12/21 07:56:09;;;;;;;5.00;3.50;;;;;;;4.57;84.59;98701.02;104745;1259;67770;-65
2023/12/21 07:58:36;;;;;;;5.30;3.10;;;;;;;4.62;84.52;98695.01;105860;1256;137985;-67
2023/12/21 08:01:02;;;;;;;7.30;3.90;;;;;;;4.61;84.27;98694.65;104799;1256;61363;-67
2023/12/21 08:03:29;;;;;;;2.50;2.20;;;;;;;4.62;84.32;98685.81;104977;1254;137582;-67
2023/12/21 08:05:56;;;;;;;4.80;2.20;;;;;;;4.59;84.11;98678.81;104920;1256;75684;-67
2023/12/21 08:08:22;;;;;;;3.90;2.50;;;;;;;4.57;84.07;98675.31;104725;1255;66175;-65
2023/12/21 08:10:49;;;;;;;4.30;2.30;;;;;;;4.59;84.07;98672.73;104922;1256;138086;-65
2023/12/21 08:13:16;;;;;;;3.20;2.00;;;;;;;4.59;84.06;98669.77;104911;1258;61194;-65
2023/12/21 08:15:42;;;;;;;4.30;2.50;;;;;;;4.62;84.04;98666.52;104825;1260;138149;-66
2023/12/21 08:18:10;;;;;;;2.90;1.80;;;;;;;4.65;83.95;98658.05;104820;1256;75345;-65
2023/12/21 08:20:36;;;;;;;3.90;2.20;;;;;;;4.67;84.04;98654.44;104861;1259;65352;-64
2023/12/21 08:23:03;;;;;;;4.10;2.00;;;;;;;4.67;83.87;98648.71;104689;1255;139067;-65
2023/12/21 08:25:31;;;;;;;2.70;1.90;;;;;;;4.65;83.87;98639.28;104801;1256;61212;-66
2023/12/21 08:27:58;;;;;;;7.00;2.80;;;;;;;4.68;83.87;98636.72;107659;1255;138575;-66
2023/12/21 08:30:25;;;;;;;4.30;2.40;;;;;;;4.71;83.84;98627.57;109024;1255;74944;-64
2023/12/21 08:32:51;;;;;;;2.70;2.20;;;;;;;4.77;83.81;98622.60;109083;1255;66079;-64
2023/12/21 08:35:18;;;;;;;4.50;2.50;;;;;;;4.81;83.62;98623.70;104998;1256;138890;-65
2023/12/21 08:37:45;;;;;;;4.10;2.60;;;;;;;4.84;83.62;98612.27;104881;1259;61609;-64
2023/12/21 08:40:13;;;;;;;3.10;2.10;;;;;;;4.90;83.58;98607.84;104805;1256;137529;-64
2023/12/21 08:42:40;;;;;;;5.10;3.10;;;;;;;4.91;83.42;98602.98;109073;1259;75116;-65
2023/12/21 08:45:09;;;;;;;3.70;2.10;;;;;;;4.97;83.57;98601.85;107840;1256;66755;-65
2023/12/21 08:47:40;;;;;;;3.80;2.50;;;;;;;4.99;83.29;98593.02;108983;1255;137474;-65
2023/12/21 08:50:09;;;;;;;5.70;3.70;;;;;;;5.02;83.36;98585.41;108443;1256;61372;-65
2023/12/21 08:52:36;;;;;;;5.00;3.20;;;;;;;5.10;83.24;98582.89;108929;1256;138257;-65
2023/12/21 08:55:04;;;;;;;4.00;2.30;;;;;;;5.11;83.10;98574.55;109045;1255;74593;-65
2023/12/21 08:57:32;;;;;;;3.40;2.40;;;;;;;5.12;83.00;98568.83;108905;1256;138220;-65
2023/12/21 09:00:03;;;;;;;2.70;2.20;;;;;;;5.14;82.88;98561.38;109051;1255;72283;-65
2023/12/21 09:02:29;;;;;;;3.10;2.10;;;;;;;5.18;82.82;98555.15;109052;1255;59055;-67
2023/12/21 09:04:56;;;;;;;2.70;2.10;;;;;;;5.22;82.77;98547.72;108998;1255;138093;-67
2023/12/21 09:07:24;;;;;;;2.10;1.70;;;;;;;5.24;82.60;98538.71;106719;1256;75509;-67
2023/12/21 09:09:51;;;;;;;5.40;2.00;;;;;;;5.24;82.52;98522.70;108917;1256;138550;-67
2023/12/21 09:12:21;;;;;;;1.90;1.70;;;;;;;5.26;82.50;98514.38;109136;1255;73880;-67
2023/12/21 09:14:47;;;;;;;2.10;1.90;;;;;;;5.28;82.40;98504.15;109063;1256;59046;-67
2023/12/21 09:17:14;;;;;;;2.00;1.50;;;;;;;5.26;82.32;98498.91;108956;1256;137423;-67
2023/12/21 09:19:43;;;;;;;2.90;1.80;;;;;;;5.25;82.29;98492.13;109062;1256;75011;-65
2023/12/21 09:22:10;;;;;;;3.10;2.30;;;;;;;5.24;82.23;98481.34;106802;1256;138118;-64
2023/12/21 09:24:39;;;;;;;6.70;4.60;;;;;;;5.27;82.30;98467.98;108991;1256;72961;-65
2023/12/21 09:27:06;;;;;;;3.80;3.00;;;;;;;5.30;82.27;98461.92;105294;1255;61154;-65
2023/12/21 09:29:33;;;;;;;5.00;3.50;;;;;;;5.31;82.16;98454.09;104864;1261;137997;-64
2023/12/21 09:31:59;;;;;;;7.10;3.40;;;;;;;5.33;82.21;98448.53;104891;1256;74852;-66
2023/12/21 09:34:26;;;;;;;4.50;2.90;;;;;;;5.39;82.34;98436.43;104842;1259;138679;-64
2023/12/21 09:36:53;;;;;;;3.70;2.50;;;;;;;5.42;82.17;98420.44;108981;1255;73669;-65
2023/12/21 09:39:20;;;;;;;4.60;2.80;;;;;;;5.39;82.01;98409.80;106172;1256;138359;-65
2023/12/21 09:41:47;;;;;;;4.20;2.40;;;;;;;5.36;82.02;98406.66;104975;1258;61347;-66
2023/12/21 09:44:20;;;;;;;2.90;2.00;;;;;;;5.36;82.00;98399.35;104833;1256;73897;-65
2023/12/21 09:46:47;;;;;;;4.20;2.50;;;;;;;5.34;81.83;98392.73;108746;1257;137926;-65
2023/12/21 09:49:14;;;;;;;4.10;2.90;;;;;;;5.29;81.84;98385.73;105718;1261;73961;-64
2023/12/21 09:51:41;;;;;;;3.60;2.60;;;;;;;5.24;81.89;98377.86;104620;1256;138893;-65
2023/12/21 09:54:08;;;;;;;5.70;2.90;;;;;;;5.20;81.86;98371.92;104886;1260;61358;-64
2023/12/21 09:56:35;;;;;;;7.60;2.90;;;;;;;5.16;81.90;98348.77;104895;1256;73896;-64
2023/12/21 09:59:02;;;;;;;8.60;5.50;;;;;;;5.14;81.98;98336.58;104821;1261;138264;-64
2023/12/21 10:01:29;;;;;;;14.50;7.80;;;;;;;5.14;82.13;98329.80;104791;1256;73497;-65
2023/12/21 10:03:57;;;;;;;12.30;7.80;;;;;;;5.12;82.10;98322.66;104746;1258;138559;-64
2023/12/21 10:06:24;;;;;;;8.60;5.80;;;;;;;5.09;82.07;98315.52;108936;1256;61126;-64
2023/12/21 10:08:51;;;;;;;10.00;5.90;;;;;;;5.06;82.01;98305.77;109089;1255;74363;-67
2023/12/21 10:11:19;;;;;;;9.20;4.30;;;;;;;5.05;82.06;98302.63;108929;1256;138309;-67
2023/12/21 10:13:49;;;;;;;7.20;5.00;;;;;;;5.13;82.28;98294.15;105174;1262;72333;-68
2023/12/21 10:16:16;;;;;;;6.20;3.90;;;;;;;5.21;82.36;98289.69;104749;1260;139010;-67
2023/12/21 10:18:43;;;;;;;6.40;4.60;;;;;;;5.28;82.34;98287.14;105079;1257;61264;-68
2023/12/21 10:21:10;;;;;;;7.40;4.70;;;;;;;5.33;82.26;98274.99;104957;1259;75502;-68
2023/12/21 10:23:39;;;;;;;6.90;4.40;;;;;;;5.39;82.25;98265.27;104804;1261;137327;-67
2023/12/21 10:26:06;;;;;;;3.90;3.10;;;;;;;5.47;82.31;98253.50;105022;1256;73373;-64
2023/12/21 10:28:33;;;;;;;4.00;3.00;;;;;;;5.52;82.14;98244.30;108943;1256;137363;-65
2023/12/21 10:31:03;;;;;;;4.30;3.40;;;;;;;5.54;81.96;98238.58;109093;1256;59926;-65
2023/12/21 10:33:31;;;;;;;3.80;3.30;;;;;;;5.54;81.95;98229.90;108923;1255;137835;-65
2023/12/21 10:35:58;;;;;;;4.90;3.70;;;;;;;5.56;81.95;98213.71;109134;1256;66217;-65
2023/12/21 10:38:25;;;;;;;5.30;4.20;;;;;;;5.64;82.01;98208.70;109030;1255;71884;-65
2023/12/21 10:40:52;;;;;;;4.40;3.60;;;;;;;5.70;81.85;98195.66;108759;1256;141905;-64
2023/12/21 10:43:19;;;;;;;3.30;2.90;;;;;;;5.72;81.72;98187.50;109063;1256;60389;-67
2023/12/21 10:45:46;;;;;;;4.40;3.60;;;;;;;5.77;81.71;98170.98;108878;1255;138482;-66
2023/12/21 10:48:13;;;;;;;4.10;3.50;;;;;;;5.86;81.86;98160.73;109070;1255;65752;-65
2023/12/21 10:50:40;;;;;;;4.20;3.10;;;;;;;6.02;82.00;98149.14;109028;1255;71403;-67
2023/12/21 10:53:09;;;;;;;4.20;3.40;;;;;;;6.18;81.91;98135.75;105119;1256;138166;-67
2023/12/21 10:55:36;;;;;;;4.60;3.40;;;;;;;6.29;81.73;98127.22;109031;1256;59739;-67
2023/12/21 10:58:03;;;;;;;4.60;3.70;;;;;;;6.34;81.51;98117.10;108904;1255;138527;-67
2023/12/21 11:00:29;;;;;;;4.20;3.80;;;;;;;6.37;81.38;98101.61;109004;1256;65134;-65
2023/12/21 11:02:56;;;;;;;4.70;3.80;;;;;;;6.42;81.24;98087.48;107412;1256;73766;-64
2023/12/21 11:05:23;;;;;;;4.40;3.90;;;;;;;6.47;81.14;98079.12;104589;1262;138853;-65
2023/12/21 11:07:50;;;;;;;4.00;3.30;;;;;;;6.43;80.87;98066.23;104748;1261;61571;-64
2023/12/21 11:10:18;;;;;;;6.40;4.30;;;;;;;6.44;80.94;98051.08;108953;1255;139186;-65
2023/12/21 11:12:44;;;;;;;5.30;4.00;;;;;;;6.44;80.83;98038.89;109077;1254;67556;-65
2023/12/21 11:15:11;;;;;;;5.10;4.40;;;;;;;6.37;80.78;98025.84;109046;1256;73045;-65
2023/12/21 11:17:40;;;;;;;4.80;4.30;;;;;;;6.32;80.77;98014.52;109006;1256;60466;-65
2023/12/21 11:20:08;;;;;;;5.20;4.60;;;;;;;6.25;80.66;97998.34;108850;1260;61531;-65
2023/12/21 11:22:40;;;;;;;6.60;4.90;;;;;;;6.20;80.84;97983.73;108828;1256;138616;-67
2023/12/21 11:25:13;;;;;;;6.60;5.10;;;;;;;6.21;80.91;97968.91;109106;1255;65035;-64